Terminal Aerodrome Forecast
Issued by NWS Binghamton, NY

Home | Current Version | Previous Version | Text Only | Print | Product List | Glossary On
Versions: 1 2 3 4 5 6 7 8 9 10 11 12 13 14 15 16 17 18 19 20
000
FTUS41 KBGM 261400 AAB
TAFAVP
TAF AMD
KAVP 261436Z 2615/2712 01005KT 1/2SM SN OVC004
      TEMPO 2615/2618 1/4SM +SN VV004
     FM262300 32008KT 2SM -SN OVC018
     FM270600 VRB03KT P6SM -SHSN OVC035=

USA.gov is the U.S. government's official web portal to all federal, state and local government web resources and services.